Butler, Ohio
Current Conditions -  °F | °C
As of 12:52 PM on Thursday 27 Nov 2014 (Local Time) from KMFD Reporting Station
Overcast Overcast  
Wind Chill: 24°   Ceiling: 2700
Heat Index: 31°   Visibility: 10mi
Dew Point: 21°   Wind: 7mph
Humidity: 67%   Direction: 300°WNW
Pressure: 30.14"   Gusts: NA
Location:  40.59°N, 82.42°W
Report Text: KMFD 271752Z 30006KT 10SM OVC027 M01/M06 A3014 RMK AO2 SLP220 60000 T10061061 11006 21022 50003
Loading
Personal Weather Stations






























Interactive Weather Map New forecast layout! Learn more

10-Day Weather Forecast

Advertisements
Track Severe Weather on mobile